Fire Weather Observation
Issued by NWS Grand Junction, CO

Home | Current Version | Previous Version | Graphics & Text | Print | Product List | Glossary On
Versions: 1 2 3 4 5 6 7 8 9 10 11 12 13 14 15 16 17 18 19 20 21 22 23 24 25 26 27 28 29 30 31 32 33 34 35 36 37 38 39 40 41 42 43 44 45 46 47 48 49 50
867
SHUS65 KGJT 262023
FWOGJT

DAILY FIRE WEATHER OBSERVATION
NATIONAL WEATHER SERVICE GRAND JUNCTION CO
212 PM MDT THU MAY 26 2016

STATE OF THE WEATHER (W)               2
DRY BULB TEMPERATURE                   71   DEGREES FAHRENHEIT
RELATIVE HUMIDITY (RH)                 16   PERCENT
LIGHTNING ACTIVITY LEVEL
  (LAL - MIDNIGHT TO 2 PM)             2
WIND DIRECTION                         270  DEGREES (C IF CALM)
WIND SPEED                             8    MPH
MAX TEMP (2 PM - 2 PM)                 74   DEGREES FAHRENHEIT
MIN TEMP (2 PM - 2 PM)                 44   DEGREES FAHRENHEIT
MAX RH (2 PM - 2 PM)                   48   PERCENT
MIN RH (2 PM - 2 PM)                   11   PERCENT
PCPN DURATION                          0.0  HOURS
PCPN AMT (2 PM - 2 PM)                 0.0  INCHES
LAL (2 PM - 2 PM)                      2

$$

METAR KGJT 261953Z 27007KT 10SM CLR 22/M06 A2984 RMK AO2 SLP051
      T02171056



USA.gov is the U.S. government's official web portal to all federal, state and local government web resources and services.